Flight Track Log - Related Links

Times and Time Zones

All times are in EDT time to prevent confusion due to time zone crossing. See the BJS542 flight status page for this flight to view local times or setup timezone preferences in your user account.

Time Position Orientation Groundspeed Altitude Reporting Facility
EDT Latitude Longitude Course Direction KTS MPH feet Rate Location/Type
Tue 04:06:42 PM 44.3878 -73.2419 257° West 245 282 9,600  Level Boston Center
Tue 04:07:42 PM 44.3744 -73.3492 260° West 259 298 13,000 3,124 Climbing Boston Center
Tue 04:08:43 PM 44.3567 -73.4708 258° West 304 350 15,900 2,898 Climbing Boston Center
Tue 04:09:40 PM 44.3389 -73.6039 259° West 336 387 18,700 2,441 Climbing Boston Center
Tue 04:10:00 PM 44.3460 -73.8451 259° West  Level FlightAware
Tue 04:10:41 PM 44.3206 -73.7400 259° West 356 410 20,700  Level Boston Center
Tue 04:11:00 PM 44.3248 -73.9851 257° West  Level FlightAware
Tue 04:11:41 PM 44.3003 -73.8789 259° West 366 421 22,300  Level Boston Center
Tue 04:12:00 PM 44.3017 -74.1245 257° West  Level FlightAware
Tue 04:12:41 PM 44.2797 -74.0203 259° West 371 427 24,300  Level Boston Center
Tue 04:13:42 PM 44.2608 -74.1736 260° West 371 427 27,000 2,380 Climbing Boston Center
Tue 04:14:42 PM 44.2397 -74.3178 258° West 371 427 29,100 1,983 Climbing Boston Center
Tue 04:15:40 PM 44.2186 -74.4592 258° West 377 434 30,900 1,765 Climbing Boston Center
Tue 04:16:41 PM 44.1992 -74.6061 260° West 377 434 32,600 1,525 Climbing Boston Center
Tue 04:17:42 PM 44.1778 -74.7531 259° West 387 445 34,000 706 Climbing Boston Center
Tue 04:18:40 PM 44.1578 -74.9056 260° West 393 452 34,000  Level Boston Center
Tue 04:19:41 PM 44.1336 -75.0581 258° West 398 458 34,000  Level Boston Center
Tue 04:20:42 PM 44.1114 -75.2044 258° West 398 458 34,000  Level Boston Center
Tue 04:21:42 PM 44.0908 -75.3569 259° West 398 458 34,000  Level Boston Center
Tue 04:22:43 PM 44.0661 -75.5058 257° West 403 464 34,000  Level Boston Center
Tue 04:23:40 PM 44.0433 -75.6550 258° West 409 471 34,000  Level Boston Center
Tue 04:24:40 PM 44.0203 -75.8067 258° West 409 471 34,000  Level Boston Center
Tue 04:25:41 PM 43.9969 -75.9556 258° West 409 471 34,000  Level Boston Center
Tue 04:26:42 PM 43.9739 -76.0986 257° West 404 465 34,000  Level Boston Center
Tue 04:27:40 PM 43.9503 -76.2472 258° West 404 465 34,000  Level Boston Center
Tue 04:28:41 PM 43.9267 -76.3928 257° West 399 459 34,000  Level Boston Center
Tue 04:29:41 PM 43.9028 -76.5381 257° West 393 452 34,000  Level Boston Center
Tue 04:30:58 PM 43.8667 -76.7000 253° West 390 449 34,000  Level Toronto Center
Tue 04:31:58 PM 43.8333 -76.8333 251° West 390 449 34,000  Level Toronto Center
Tue 04:32:58 PM 43.8000 -77.0000 255° West 380 437 34,000  Level Toronto Center
Tue 04:33:58 PM 43.7833 -77.1333 260° West 380 437 34,000  Level Toronto Center
Tue 04:34:58 PM 43.7500 -77.2833 253° West 380 437 34,000  Level Toronto Center
Tue 04:35:58 PM 43.7333 -77.4167 260° West 390 449 34,000  Level Toronto Center
Tue 04:36:58 PM 43.7167 -77.5500 260° West 380 437 34,000  Level Toronto Center
Tue 04:37:58 PM 43.6833 -77.7167 255° West 380 437 34,000  Level Toronto Center
Tue 04:38:58 PM 43.6667 -77.8500 260° West 380 437 34,000  Level Toronto Center
Tue 04:39:58 PM 43.6333 -78.0000 253° West 380 437 34,000  Level Toronto Center
Tue 04:40:58 PM 43.6000 -78.1333 251° West 380 437 34,000  Level Toronto Center
Tue 04:41:46 PM 43.6039 -78.2528 273° West 381 438 34,000  Level Cleveland Center
Tue 04:42:46 PM 43.5756 -78.4083 256° West 381 438 34,000 -400 Level Cleveland Center
Tue 04:43:46 PM 43.5511 -78.5497 257° West 381 438 33,200 -500 Descending Cleveland Center
Tue 04:44:46 PM 43.5242 -78.6881 255° West 381 438 33,000 -100 Descending Cleveland Center
Tue 04:45:46 PM 43.4994 -78.8289 256° West 375 432 33,000  Level Cleveland Center
Tue 04:46:46 PM 43.4722 -78.9672 255° West 375 432 33,000  Level Cleveland Center
Tue 04:47:58 PM 43.4333 -79.1333 252° West 380 437 33,000  Level Toronto Center
Tue 04:48:58 PM 43.4000 -79.2500 249° West 380 437 33,000  Level Toronto Center
Tue 04:49:58 PM 43.3833 -79.4000 261° West 380 437 33,000  Level Toronto Center
Tue 04:50:58 PM 43.3500 -79.5333 251° West 370 426 33,000 -650 Level Toronto Center
Tue 04:51:58 PM 43.3167 -79.6833 253° West 380 437 31,700 -1,350 Descending Toronto Center
Tue 04:52:58 PM 43.3000 -79.8167 260° West 380 437 30,300 -1,400 Descending Toronto Center
Tue 04:53:58 PM 43.2667 -79.9500 251° West 380 437 28,900 -1,150 Descending Toronto Center
Tue 04:54:58 PM 43.2333 -80.0833 251° West 380 437 28,000 -450 Descending Toronto Center
Tue 04:55:58 PM 43.2167 -80.2333 261° West 370 426 28,000 -100 Level Toronto Center
Tue 04:56:58 PM 43.1833 -80.3667 251° West 360 414 27,800 -950 Descending Toronto Center
Tue 04:57:58 PM 43.1667 -80.5000 260° West 370 426 26,100 -1,550 Descending Toronto Center
Tue 04:58:58 PM 43.1333 -80.6333 251° West 370 426 24,700 -1,450 Descending Toronto Center
Tue 04:59:58 PM 43.1167 -80.7500 259° West 360 414 23,200 -1,500 Descending Toronto Center
Tue 05:00:58 PM 43.0667 -80.8833 243° Southwest 360 414 21,700 -1,500 Descending Toronto Center
Tue 05:01:58 PM 43.0500 -81.0167 260° West 350 403 20,200 -1,350 Descending Toronto Center
Tue 05:02:58 PM 43.0167 -81.1667 253° West 350 403 19,000 -600 Descending Toronto Center
Tue 05:03:58 PM 42.9833 -81.2667 246° West 340 391 19,000 -850 Level Toronto Center
Tue 05:04:58 PM 42.9667 -81.4167 261° West 340 391 17,300 -1,550 Descending Toronto Center
Tue 05:05:58 PM 42.9333 -81.5167 246° West 340 391 15,900 -1,450 Descending Toronto Center
Tue 05:06:58 PM 42.9000 -81.6333 249° West 340 391 14,400 -1,550 Descending Toronto Center
Tue 05:07:58 PM 42.8667 -81.7667 251° West 340 391 12,800 -1,160 Descending Toronto Center
Tue 05:08:57 PM 42.8550 -81.8858 262° West 342 394 12,100 -454 Descending Cleveland Center
Tue 05:09:57 PM 42.8244 -82.0014 250° West 342 394 11,900 -350 Descending Cleveland Center
Tue 05:10:57 PM 42.7958 -82.1197 252° West 342 394 11,400 -750 Descending Cleveland Center
Tue 05:11:57 PM 42.7631 -82.2375 249° West 342 394 10,400 -700 Descending Cleveland Center
Tue 05:12:57 PM 42.7342 -82.3583 252° West 342 394 10,000 -400 Descending Cleveland Center
Tue 05:13:57 PM 42.6992 -82.4533 243° Southwest 321 369 9,600 -857 Descending Cleveland Center
Tue 05:14:28 PM 42.6733 -82.5033 235° Southwest 266 306 8,700 -1,385 Descending Cleveland Center
Tue 05:15:41 PM 42.6197 -82.6006 233° Southwest 265 305 7,200 -1,299 Descending Cleveland Center
Tue 05:16:42 PM 42.5783 -82.6894 238° Southwest 264 304 5,800 -1,328 Descending Cleveland Center
Tue 05:17:43 PM 42.5353 -82.7669 233° Southwest 265 305 4,500 -1,279 Descending Cleveland Center
Tue 05:18:44 PM 42.4942 -82.8500 236° Southwest 265 305 3,200 -793 Descending Cleveland Center
Tue 05:19:44 PM 42.4450 -82.9072 221° Southwest 220 253 2,900 -639 Descending Cleveland Center
Tue 05:20:46 PM 42.3983 -82.9506 214° Southwest 164 189 1,900 -934 Descending Cleveland Center
Tue 05:21:46 PM 42.3933 -82.9956 261° West 123 142 1,000 -900 Descending Cleveland Center

Login

Don't have an account? Register now (free) for customized features, flight alerts, and more!